sensor_id;sensor_type;location;lat;lon;timestamp;pressure;altitude;pressure_sealevel;temperature;humidity
71805;BME280;59654;52.216;5.616;2022-10-16T00:00:01;100733.28;;;11.32;87.05
71805;BME280;59654;52.216;5.616;2022-10-16T00:00:34;100729.97;;;11.27;86.73
71805;BME280;59654;52.216;5.616;2022-10-16T00:01:09;100733.63;;;11.25;86.63
71805;BME280;59654;52.216;5.616;2022-10-16T00:01:44;100732.81;;;11.23;87.12
71805;BME280;59654;52.216;5.616;2022-10-16T00:02:14;100734.50;;;11.25;87.08
71805;BME280;59654;52.216;5.616;2022-10-16T00:02:45;100738.97;;;11.25;87.04
71805;BME280;59654;52.216;5.616;2022-10-16T00:03:16;100730.94;;;11.25;87.40
71805;BME280;59654;52.216;5.616;2022-10-16T00:03:48;100735.44;;;11.24;87.28
71805;BME280;59654;52.216;5.616;2022-10-16T00:04:19;100726.53;;;11.24;87.70
71805;BME280;59654;52.216;5.616;2022-10-16T00:04:50;100729.03;;;11.28;87.24
71805;BME280;59654;52.216;5.616;2022-10-16T00:05:21;100728.06;;;11.29;87.25
71805;BME280;59654;52.216;5.616;2022-10-16T00:05:52;100727.94;;;11.32;87.16
71805;BME280;59654;52.216;5.616;2022-10-16T00:06:24;100735.94;;;11.32;86.88
71805;BME280;59654;52.216;5.616;2022-10-16T00:06:55;100729.63;;;11.35;87.02
71805;BME280;59654;52.216;5.616;2022-10-16T00:07:27;100734.03;;;11.36;86.77
71805;BME280;59654;52.216;5.616;2022-10-16T00:07:57;100733.97;;;11.38;87.00
71805;BME280;59654;52.216;5.616;2022-10-16T00:08:28;100726.81;;;11.38;86.51
71805;BME280;59654;52.216;5.616;2022-10-16T00:08:59;100729.63;;;11.35;86.77
71805;BME280;59654;52.216;5.616;2022-10-16T00:09:30;100727.88;;;11.34;86.61
71805;BME280;59654;52.216;5.616;2022-10-16T00:10:01;100722.72;;;11.29;86.61
71805;BME280;59654;52.216;5.616;2022-10-16T00:10:32;100730.81;;;11.28;86.67
71805;BME280;59654;52.216;5.616;2022-10-16T00:11:39;100731.69;;;11.28;86.27
71805;BME280;59654;52.216;5.616;2022-10-16T00:12:10;100724.69;;;11.26;86.90
71805;BME280;59654;52.216;5.616;2022-10-16T00:12:41;100725.63;;;11.25;86.91
71805;BME280;59654;52.216;5.616;2022-10-16T00:13:12;100729.88;;;11.29;87.19
71805;BME280;59654;52.216;5.616;2022-10-16T00:13:44;100727.28;;;11.27;86.86
71805;BME280;59654;52.216;5.616;2022-10-16T00:14:15;100732.47;;;11.30;87.40
71805;BME280;59654;52.216;5.616;2022-10-16T00:14:46;100730.66;;;11.31;87.39
71805;BME280;59654;52.216;5.616;2022-10-16T00:15:17;100731.53;;;11.31;86.94
71805;BME280;59654;52.216;5.616;2022-10-16T00:15:48;100728.06;;;11.29;86.90
71805;BME280;59654;52.216;5.616;2022-10-16T00:16:19;100732.53;;;11.29;86.83
71805;BME280;59654;52.216;5.616;2022-10-16T00:16:50;100730.72;;;11.29;86.98
71805;BME280;59654;52.216;5.616;2022-10-16T00:17:20;100730.72;;;11.29;86.82
71805;BME280;59654;52.216;5.616;2022-10-16T00:17:51;100728.16;;;11.28;86.54
71805;BME280;59654;52.216;5.616;2022-10-16T00:18:23;100737.88;;;11.29;87.24
71805;BME280;59654;52.216;5.616;2022-10-16T00:18:55;100742.69;;;11.21;86.93
71805;BME280;59654;52.216;5.616;2022-10-16T00:19:26;100726.88;;;11.16;87.26
71805;BME280;59654;52.216;5.616;2022-10-16T00:19:57;100737.47;;;11.18;87.69
71805;BME280;59654;52.216;5.616;2022-10-16T00:20:28;100739.22;;;11.19;87.69
71805;BME280;59654;52.216;5.616;2022-10-16T00:21:18;100735.59;;;11.20;87.59
71805;BME280;59654;52.216;5.616;2022-10-16T00:21:51;100741.56;;;11.26;88.21
71805;BME280;59654;52.216;5.616;2022-10-16T00:22:22;100739.03;;;11.23;87.70
71805;BME280;59654;52.216;5.616;2022-10-16T00:22:53;100740.81;;;11.23;87.72
71805;BME280;59654;52.216;5.616;2022-10-16T00:23:24;100735.47;;;11.23;87.77
71805;BME280;59654;52.216;5.616;2022-10-16T00:23:57;100738.97;;;11.25;87.76
71805;BME280;59654;52.216;5.616;2022-10-16T00:24:30;100736.34;;;11.23;87.74
71805;BME280;59654;52.216;5.616;2022-10-16T00:25:01;100737.28;;;11.22;87.66
71805;BME280;59654;52.216;5.616;2022-10-16T00:25:32;100736.41;;;11.22;87.94
71805;BME280;59654;52.216;5.616;2022-10-16T00:26:12;100738.22;;;11.21;87.69
71805;BME280;59654;52.216;5.616;2022-10-16T00:26:45;100733.81;;;11.20;87.92
71805;BME280;59654;52.216;5.616;2022-10-16T00:27:16;100739.16;;;11.20;88.05
71805;BME280;59654;52.216;5.616;2022-10-16T00:27:47;100734.88;;;11.16;87.56
71805;BME280;59654;52.216;5.616;2022-10-16T00:28:18;100734.13;;;11.13;87.57
71805;BME280;59654;52.216;5.616;2022-10-16T00:28:50;100736.00;;;11.11;87.83
71805;BME280;59654;52.216;5.616;2022-10-16T00:29:22;100734.28;;;11.10;87.90
71805;BME280;59654;52.216;5.616;2022-10-16T00:29:52;100741.41;;;11.09;88.08
71805;BME280;59654;52.216;5.616;2022-10-16T00:30:23;100732.47;;;11.10;88.14
71805;BME280;59654;52.216;5.616;2022-10-16T00:30:54;100736.88;;;11.11;88.22
71805;BME280;59654;52.216;5.616;2022-10-16T00:31:25;100737.81;;;11.10;88.17
71805;BME280;59654;52.216;5.616;2022-10-16T00:31:57;100726.06;;;11.14;88.59
71805;BME280;59654;52.216;5.616;2022-10-16T00:32:28;100730.53;;;11.14;88.28
71805;BME280;59654;52.216;5.616;2022-10-16T00:32:58;100742.06;;;11.14;88.41
71805;BME280;59654;52.216;5.616;2022-10-16T00:33:29;100741.06;;;11.17;88.23
71805;BME280;59654;52.216;5.616;2022-10-16T00:34:01;100745.34;;;11.21;87.80
71805;BME280;59654;52.216;5.616;2022-10-16T00:34:31;100745.34;;;11.21;88.25
71805;BME280;59654;52.216;5.616;2022-10-16T00:35:02;100740.13;;;11.18;88.13
71805;BME280;59654;52.216;5.616;2022-10-16T00:35:34;100739.88;;;11.24;88.03
71805;BME280;59654;52.216;5.616;2022-10-16T00:36:06;100742.28;;;11.30;87.84
71805;BME280;59654;52.216;5.616;2022-10-16T00:36:38;100742.16;;;11.33;87.30
71805;BME280;59654;52.216;5.616;2022-10-16T00:37:09;100742.97;;;11.35;88.00
71805;BME280;59654;52.216;5.616;2022-10-16T00:37:40;100741.28;;;11.32;87.08
71805;BME280;59654;52.216;5.616;2022-10-16T00:38:10;100737.81;;;11.30;87.35
71805;BME280;59654;52.216;5.616;2022-10-16T00:38:41;100737.75;;;11.32;87.96
71805;BME280;59654;52.216;5.616;2022-10-16T00:39:12;100743.03;;;11.33;87.86
71805;BME280;59654;52.216;5.616;2022-10-16T00:39:43;100738.56;;;11.34;87.66
71805;BME280;59654;52.216;5.616;2022-10-16T00:40:14;100733.09;;;11.37;87.71
71805;BME280;59654;52.216;5.616;2022-10-16T00:40:45;100735.66;;;11.40;87.43
71805;BME280;59654;52.216;5.616;2022-10-16T00:41:17;100748.00;;;11.43;87.40
71805;BME280;59654;52.216;5.616;2022-10-16T00:41:48;100748.00;;;11.43;87.40
71805;BME280;59654;52.216;5.616;2022-10-16T00:42:19;100742.69;;;11.43;86.41
71805;BME280;59654;52.216;5.616;2022-10-16T00:42:50;100738.22;;;11.43;86.98
71805;BME280;59654;52.216;5.616;2022-10-16T00:43:37;100739.84;;;11.46;87.03
71805;BME280;59654;52.216;5.616;2022-10-16T00:45:24;100734.19;;;11.53;86.92
71805;BME280;59654;52.216;5.616;2022-10-16T00:45:55;100735.06;;;11.54;86.48
71805;BME280;59654;52.216;5.616;2022-10-16T00:46:38;100737.84;;;11.51;86.92
71805;BME280;59654;52.216;5.616;2022-10-16T00:47:24;100733.44;;;11.50;86.83
71805;BME280;59654;52.216;5.616;2022-10-16T00:47:57;100739.66;;;11.50;87.04
71805;BME280;59654;52.216;5.616;2022-10-16T00:48:29;100745.88;;;11.51;86.75
71805;BME280;59654;52.216;5.616;2022-10-16T00:49:05;100742.19;;;11.53;86.90
71805;BME280;59654;52.216;5.616;2022-10-16T00:49:38;100742.25;;;11.52;86.23
71805;BME280;59654;52.216;5.616;2022-10-16T00:50:24;100737.91;;;11.49;87.11
71805;BME280;59654;52.216;5.616;2022-10-16T00:50:59;100732.06;;;11.41;87.36
71805;BME280;59654;52.216;5.616;2022-10-16T00:51:35;100739.19;;;11.41;87.68
71805;BME280;59654;52.216;5.616;2022-10-16T00:52:10;100734.81;;;11.38;87.02
71805;BME280;59654;52.216;5.616;2022-10-16T00:52:45;100740.09;;;11.40;87.47
71805;BME280;59654;52.216;5.616;2022-10-16T00:53:17;100735.47;;;11.45;87.85
71805;BME280;59654;52.216;5.616;2022-10-16T00:53:49;100737.34;;;11.43;87.83
71805;BME280;59654;52.216;5.616;2022-10-16T00:54:28;100739.94;;;11.44;87.70
71805;BME280;59654;52.216;5.616;2022-10-16T00:55:03;100733.09;;;11.37;87.16
71805;BME280;59654;52.216;5.616;2022-10-16T00:55:36;100738.34;;;11.40;87.13
71805;BME280;59654;52.216;5.616;2022-10-16T00:56:07;100742.75;;;11.41;87.85
71805;BME280;59654;52.216;5.616;2022-10-16T00:56:38;100745.41;;;11.41;88.04
71805;BME280;59654;52.216;5.616;2022-10-16T00:57:09;100741.88;;;11.41;87.25
71805;BME280;59654;52.216;5.616;2022-10-16T00:57:40;100736.53;;;11.41;87.48
71805;BME280;59654;52.216;5.616;2022-10-16T00:58:12;100739.94;;;11.44;87.66
71805;BME280;59654;52.216;5.616;2022-10-16T00:58:43;100740.72;;;11.46;87.53
71805;BME280;59654;52.216;5.616;2022-10-16T00:59:18;100741.66;;;11.45;87.34
71805;BME280;59654;52.216;5.616;2022-10-16T00:59:51;100740.81;;;11.45;87.18
71805;BME280;59654;52.216;5.616;2022-10-16T01:00:25;100743.59;;;11.42;87.02
71805;BME280;59654;52.216;5.616;2022-10-16T01:00:57;100741.00;;;11.40;87.62
71805;BME280;59654;52.216;5.616;2022-10-16T01:01:28;100741.91;;;11.39;87.67
71805;BME280;59654;52.216;5.616;2022-10-16T01:02:00;100741.00;;;11.40;87.69
71805;BME280;59654;52.216;5.616;2022-10-16T01:02:31;100741.88;;;11.41;88.16
71805;BME280;59654;52.216;5.616;2022-10-16T01:03:21;100743.53;;;11.43;87.91
71805;BME280;59654;52.216;5.616;2022-10-16T01:04:00;100731.13;;;11.42;88.41
71805;BME280;59654;52.216;5.616;2022-10-16T01:04:37;100744.63;;;11.38;88.37
71805;BME280;59654;52.216;5.616;2022-10-16T01:05:10;100742.91;;;11.36;88.19
71805;BME280;59654;52.216;5.616;2022-10-16T01:05:51;100743.88;;;11.34;89.04
71805;BME280;59654;52.216;5.616;2022-10-16T01:08:02;100736.06;;;11.29;88.77
71805;BME280;59654;52.216;5.616;2022-10-16T01:09:04;100732.53;;;11.29;89.47
71805;BME280;59654;52.216;5.616;2022-10-16T01:09:57;100735.34;;;11.26;89.54
71805;BME280;59654;52.216;5.616;2022-10-16T01:10:55;100734.38;;;11.28;89.01
71805;BME280;59654;52.216;5.616;2022-10-16T01:11:36;100729.81;;;11.30;89.08
71805;BME280;59654;52.216;5.616;2022-10-16T01:12:33;100740.28;;;11.35;89.13
71805;BME280;59654;52.216;5.616;2022-10-16T01:13:24;100737.56;;;11.36;88.90
71805;BME280;59654;52.216;5.616;2022-10-16T01:16:39;100744.31;;;11.45;89.07
71805;BME280;59654;52.216;5.616;2022-10-16T01:17:21;100744.25;;;11.47;88.86
71805;BME280;59654;52.216;5.616;2022-10-16T01:18:00;100747.72;;;11.49;88.68
71805;BME280;59654;52.216;5.616;2022-10-16T01:18:43;100741.34;;;11.53;88.47
71805;BME280;59654;52.216;5.616;2022-10-16T01:19:39;100751.13;;;11.52;88.66
71805;BME280;59654;52.216;5.616;2022-10-16T01:21:06;100753.75;;;11.54;88.57
71805;BME280;59654;52.216;5.616;2022-10-16T01:21:43;100746.59;;;11.54;88.21
71805;BME280;59654;52.216;5.616;2022-10-16T01:22:16;100746.59;;;11.54;88.57
71805;BME280;59654;52.216;5.616;2022-10-16T01:24:29;100747.00;;;11.45;88.19
71805;BME280;59654;52.216;5.616;2022-10-16T01:25:11;100746.28;;;11.42;89.12
71805;BME280;59654;52.216;5.616;2022-10-16T01:26:14;100744.69;;;11.36;88.85
71805;BME280;59654;52.216;5.616;2022-10-16T01:27:57;100754.06;;;11.46;89.22
71805;BME280;59654;52.216;5.616;2022-10-16T01:28:57;100749.53;;;11.48;88.77
71805;BME280;59654;52.216;5.616;2022-10-16T01:30:30;100744.25;;;11.47;88.92
71805;BME280;59654;52.216;5.616;2022-10-16T01:31:03;100754.16;;;11.45;89.32
71805;BME280;59654;52.216;5.616;2022-10-16T01:31:39;100750.53;;;11.46;89.41
71805;BME280;59654;52.216;5.616;2022-10-16T01:34:16;100749.53;;;11.48;89.25
71805;BME280;59654;52.216;5.616;2022-10-16T01:34:57;100740.53;;;11.51;89.25
71805;BME280;59654;52.216;5.616;2022-10-16T01:35:41;100752.06;;;11.51;88.93
71805;BME280;59654;52.216;5.616;2022-10-16T01:36:21;100745.13;;;11.47;89.16
71805;BME280;59654;52.216;5.616;2022-10-16T01:37:18;100745.00;;;11.50;89.31
71805;BME280;59654;52.216;5.616;2022-10-16T01:38:12;100742.19;;;11.53;89.08
71805;BME280;59654;52.216;5.616;2022-10-16T01:38:51;100743.81;;;11.57;89.07
71805;BME280;59654;52.216;5.616;2022-10-16T01:39:29;100739.41;;;11.56;88.87
71805;BME280;59654;52.216;5.616;2022-10-16T01:40:09;100731.44;;;11.55;88.92
71805;BME280;59654;52.216;5.616;2022-10-16T01:40:47;100737.59;;;11.57;89.17
71805;BME280;59654;52.216;5.616;2022-10-16T01:41:30;100735.72;;;11.59;89.22
71805;BME280;59654;52.216;5.616;2022-10-16T01:42:13;100724.13;;;11.60;89.11
71805;BME280;59654;52.216;5.616;2022-10-16T01:43:03;100733.63;;;11.65;88.98
71805;BME280;59654;52.216;5.616;2022-10-16T01:44:51;100725.91;;;11.59;88.61
71805;BME280;59654;52.216;5.616;2022-10-16T01:45:22;100732.03;;;11.61;89.03
71805;BME280;59654;52.216;5.616;2022-10-16T01:45:55;100731.97;;;11.63;88.69
71805;BME280;59654;52.216;5.616;2022-10-16T01:46:26;100730.91;;;11.67;89.20
71805;BME280;59654;52.216;5.616;2022-10-16T01:46:59;100733.63;;;11.65;89.36
71805;BME280;59654;52.216;5.616;2022-10-16T01:47:31;100732.78;;;11.65;88.98
71805;BME280;59654;52.216;5.616;2022-10-16T01:48:06;100738.72;;;11.72;88.95
71805;BME280;59654;52.216;5.616;2022-10-16T01:48:40;100741.25;;;11.75;88.90
71805;BME280;59654;52.216;5.616;2022-10-16T01:49:13;100737.72;;;11.74;88.57
71805;BME280;59654;52.216;5.616;2022-10-16T01:49:44;100737.72;;;11.74;88.08
71805;BME280;59654;52.216;5.616;2022-10-16T01:50:19;100741.31;;;11.73;88.83
71805;BME280;59654;52.216;5.616;2022-10-16T01:51:11;100740.59;;;11.69;88.59
71805;BME280;59654;52.216;5.616;2022-10-16T01:51:47;100745.19;;;11.66;88.83
71805;BME280;59654;52.216;5.616;2022-10-16T01:52:25;100738.09;;;11.65;89.21
71805;BME280;59654;52.216;5.616;2022-10-16T01:52:58;100736.13;;;11.70;89.29
71805;BME280;59654;52.216;5.616;2022-10-16T01:53:32;100744.25;;;11.67;89.00
71805;BME280;59654;52.216;5.616;2022-10-16T01:54:07;100738.97;;;11.65;89.32
71805;BME280;59654;52.216;5.616;2022-10-16T01:54:43;100741.66;;;11.65;89.03
71805;BME280;59654;52.216;5.616;2022-10-16T01:55:24;100736.38;;;11.64;89.14
71805;BME280;59654;52.216;5.616;2022-10-16T01:56:02;100742.88;;;11.58;89.38
71805;BME280;59654;52.216;5.616;2022-10-16T01:56:36;100751.94;;;11.54;89.35
71805;BME280;59654;52.216;5.616;2022-10-16T01:57:11;100752.00;;;11.53;89.70
71805;BME280;59654;52.216;5.616;2022-10-16T01:57:47;100743.88;;;11.56;90.21
71805;BME280;59654;52.216;5.616;2022-10-16T01:58:22;100746.59;;;11.54;89.65
71805;BME280;59654;52.216;5.616;2022-10-16T01:59:04;100742.88;;;11.58;89.82
71805;BME280;59654;52.216;5.616;2022-10-16T01:59:46;100741.13;;;11.57;89.52
71805;BME280;59654;52.216;5.616;2022-10-16T02:00:21;100742.06;;;11.56;89.26
71805;BME280;59654;52.216;5.616;2022-10-16T02:00:54;100747.28;;;11.59;89.69
71805;BME280;59654;52.216;5.616;2022-10-16T02:01:30;100751.13;;;11.52;89.58
71805;BME280;59654;52.216;5.616;2022-10-16T02:02:08;100757.59;;;11.47;90.11
71805;BME280;59654;52.216;5.616;2022-10-16T02:02:45;100753.88;;;11.51;90.08
71805;BME280;59654;52.216;5.616;2022-10-16T02:03:19;100752.06;;;11.51;90.50
71805;BME280;59654;52.216;5.616;2022-10-16T02:03:54;100752.94;;;11.52;90.17
71805;BME280;59654;52.216;5.616;2022-10-16T02:04:28;100744.81;;;11.55;90.01
71805;BME280;59654;52.216;5.616;2022-10-16T02:05:14;100746.47;;;11.57;90.22
71805;BME280;59654;52.216;5.616;2022-10-16T02:05:55;100747.34;;;11.58;89.77
71805;BME280;59654;52.216;5.616;2022-10-16T02:06:27;100748.22;;;11.58;89.84
71805;BME280;59654;52.216;5.616;2022-10-16T02:07:00;100742.88;;;11.58;89.36
71805;BME280;59654;52.216;5.616;2022-10-16T02:07:31;100744.69;;;11.58;89.78
71805;BME280;59654;52.216;5.616;2022-10-16T02:08:03;100746.47;;;11.57;89.64
71805;BME280;59654;52.216;5.616;2022-10-16T02:08:35;100744.75;;;11.56;89.96
71805;BME280;59654;52.216;5.616;2022-10-16T02:09:07;100746.53;;;11.56;90.06
71805;BME280;59654;52.216;5.616;2022-10-16T02:09:39;100746.59;;;11.54;90.26
71805;BME280;59654;52.216;5.616;2022-10-16T02:10:10;100740.34;;;11.55;89.98
71805;BME280;59654;52.216;5.616;2022-10-16T02:10:42;100740.34;;;11.55;90.17
71805;BME280;59654;52.216;5.616;2022-10-16T02:11:12;100739.41;;;11.56;89.89
71805;BME280;59654;52.216;5.616;2022-10-16T02:11:44;100732.19;;;11.58;90.55
71805;BME280;59654;52.216;5.616;2022-10-16T02:13:29;100732.25;;;11.57;89.99
71805;BME280;59654;52.216;5.616;2022-10-16T02:14:05;100733.25;;;11.54;90.27
71805;BME280;59654;52.216;5.616;2022-10-16T02:14:38;100732.31;;;11.55;90.20
71805;BME280;59654;52.216;5.616;2022-10-16T02:15:09;100732.31;;;11.55;90.36
71805;BME280;59654;52.216;5.616;2022-10-16T02:15:40;100735.94;;;11.54;89.92
71805;BME280;59654;52.216;5.616;2022-10-16T02:16:12;100727.91;;;11.54;90.39
71805;BME280;59654;52.216;5.616;2022-10-16T02:16:46;100732.38;;;11.54;90.41
71805;BME280;59654;52.216;5.616;2022-10-16T02:17:18;100742.06;;;11.56;90.44
71805;BME280;59654;52.216;5.616;2022-10-16T02:17:49;100742.06;;;11.56;90.14
71805;BME280;59654;52.216;5.616;2022-10-16T02:18:20;100737.66;;;11.55;90.09
71805;BME280;59654;52.216;5.616;2022-10-16T02:18:51;100734.94;;;11.57;90.65
71805;BME280;59654;52.216;5.616;2022-10-16T02:19:22;100741.00;;;11.60;90.09
71805;BME280;59654;52.216;5.616;2022-10-16T02:19:56;100739.28;;;11.59;89.95
71805;BME280;59654;52.216;5.616;2022-10-16T02:20:34;100742.00;;;11.58;89.95
71805;BME280;59654;52.216;5.616;2022-10-16T02:21:34;100745.53;;;11.58;90.22
71805;BME280;59654;52.216;5.616;2022-10-16T02:22:17;100742.13;;;11.55;90.67
71805;BME280;59654;52.216;5.616;2022-10-16T02:22:56;100744.69;;;11.58;90.51
71805;BME280;59654;52.216;5.616;2022-10-16T02:25:40;100742.00;;;11.58;90.74
71805;BME280;59654;52.216;5.616;2022-10-16T02:26:07;100746.41;;;11.59;90.74
71805;BME280;59654;52.216;5.616;2022-10-16T02:27:07;100748.06;;;11.61;90.84
71805;BME280;59654;52.216;5.616;2022-10-16T02:28:13;100739.34;;;11.58;90.28
71805;BME280;59654;52.216;5.616;2022-10-16T02:28:54;100745.53;;;11.58;90.57
71805;BME280;59654;52.216;5.616;2022-10-16T02:29:32;100756.28;;;11.57;90.54
71805;BME280;59654;52.216;5.616;2022-10-16T02:30:19;100749.22;;;11.56;90.76
71805;BME280;59654;52.216;5.616;2022-10-16T02:31:03;100748.28;;;11.57;90.93
71805;BME280;59654;52.216;5.616;2022-10-16T02:31:41;100749.22;;;11.56;90.97
71805;BME280;59654;52.216;5.616;2022-10-16T02:32:24;100763.56;;;11.53;90.71
71805;BME280;59654;52.216;5.616;2022-10-16T02:33:02;100764.44;;;11.54;91.02
71805;BME280;59654;52.216;5.616;2022-10-16T02:33:37;100766.28;;;11.52;91.21
71805;BME280;59654;52.216;5.616;2022-10-16T02:34:12;100758.28;;;11.52;91.26
71805;BME280;59654;52.216;5.616;2022-10-16T02:34:46;100761.00;;;11.50;91.25
71805;BME280;59654;52.216;5.616;2022-10-16T02:35:21;100765.44;;;11.51;91.25
71805;BME280;59654;52.216;5.616;2022-10-16T02:35:55;100762.75;;;11.51;91.41
71805;BME280;59654;52.216;5.616;2022-10-16T02:36:27;100759.03;;;11.55;91.14
71805;BME280;59654;52.216;5.616;2022-10-16T02:37:01;100759.09;;;11.54;91.90
71805;BME280;59654;52.216;5.616;2022-10-16T02:37:32;100760.09;;;11.51;91.71
71805;BME280;59654;52.216;5.616;2022-10-16T02:38:05;100755.63;;;11.52;91.07
71805;BME280;59654;52.216;5.616;2022-10-16T02:38:38;100757.34;;;11.53;91.30
71805;BME280;59654;52.216;5.616;2022-10-16T02:39:10;100751.06;;;11.54;91.30
71805;BME280;59654;52.216;5.616;2022-10-16T02:39:42;100755.56;;;11.53;91.29
71805;BME280;59654;52.216;5.616;2022-10-16T02:40:13;100750.06;;;11.56;91.12
71805;BME280;59654;52.216;5.616;2022-10-16T02:40:46;100750.72;;;11.61;90.95
71805;BME280;59654;52.216;5.616;2022-10-16T02:41:17;100747.06;;;11.64;91.01
71805;BME280;59654;52.216;5.616;2022-10-16T02:41:47;100749.72;;;11.64;91.07
71805;BME280;59654;52.216;5.616;2022-10-16T02:42:18;100747.06;;;11.64;91.10
71805;BME280;59654;52.216;5.616;2022-10-16T02:42:51;100752.41;;;11.64;91.33
71805;BME280;59654;52.216;5.616;2022-10-16T02:43:24;100752.19;;;11.68;90.84
71805;BME280;59654;52.216;5.616;2022-10-16T02:43:56;100748.66;;;11.68;90.83
71805;BME280;59654;52.216;5.616;2022-10-16T02:44:27;100760.22;;;11.68;90.57
71805;BME280;59654;52.216;5.616;2022-10-16T02:44:57;100756.06;;;11.61;90.34
71805;BME280;59654;52.216;5.616;2022-10-16T02:45:28;100750.81;;;11.60;90.81
71805;BME280;59654;52.216;5.616;2022-10-16T02:45:59;100759.09;;;11.54;91.10
71805;BME280;59654;52.216;5.616;2022-10-16T02:46:30;100755.69;;;11.50;91.33
71805;BME280;59654;52.216;5.616;2022-10-16T02:47:01;100757.53;;;11.48;91.65
71805;BME280;59654;52.216;5.616;2022-10-16T02:47:32;100758.47;;;11.47;91.25
71805;BME280;59654;52.216;5.616;2022-10-16T02:48:03;100763.69;;;11.50;91.60
71805;BME280;59654;52.216;5.616;2022-10-16T02:48:34;100762.81;;;11.50;92.54
71805;BME280;59654;52.216;5.616;2022-10-16T02:49:06;100760.16;;;11.50;91.82
71805;BME280;59654;52.216;5.616;2022-10-16T02:49:37;100764.63;;;11.49;91.73
71805;BME280;59654;52.216;5.616;2022-10-16T02:50:07;100763.69;;;11.50;91.62
71805;BME280;59654;52.216;5.616;2022-10-16T02:50:38;100768.09;;;11.51;91.89
71805;BME280;59654;52.216;5.616;2022-10-16T02:51:09;100760.09;;;11.51;91.57
71805;BME280;59654;52.216;5.616;2022-10-16T02:51:40;100762.69;;;11.53;91.92
71805;BME280;59654;52.216;5.616;2022-10-16T02:52:10;100760.81;;;11.55;91.54
71805;BME280;59654;52.216;5.616;2022-10-16T02:52:42;100762.63;;;11.54;91.66
71805;BME280;59654;52.216;5.616;2022-10-16T02:53:12;100760.75;;;11.56;91.62
71805;BME280;59654;52.216;5.616;2022-10-16T02:53:43;100765.16;;;11.57;91.58
71805;BME280;59654;52.216;5.616;2022-10-16T02:54:14;100770.50;;;11.57;91.67
71805;BME280;59654;52.216;5.616;2022-10-16T02:54:45;100758.66;;;11.63;90.96
71805;BME280;59654;52.216;5.616;2022-10-16T02:55:16;100763.94;;;11.64;91.09
71805;BME280;59654;52.216;5.616;2022-10-16T02:55:47;100763.09;;;11.64;91.27
71805;BME280;59654;52.216;5.616;2022-10-16T02:56:18;100763.75;;;11.69;91.61
71805;BME280;59654;52.216;5.616;2022-10-16T02:56:49;100761.16;;;11.67;91.37
71805;BME280;59654;52.216;5.616;2022-10-16T02:57:20;100766.50;;;11.67;91.03
71805;BME280;59654;52.216;5.616;2022-10-16T02:57:50;100763.00;;;11.65;91.40
71805;BME280;59654;52.216;5.616;2022-10-16T02:58:21;100772.81;;;11.65;91.85
71805;BME280;59654;52.216;5.616;2022-10-16T02:58:52;100765.81;;;11.62;91.41
71805;BME280;59654;52.216;5.616;2022-10-16T02:59:23;100765.16;;;11.57;91.39
71805;BME280;59654;52.216;5.616;2022-10-16T02:59:54;100766.03;;;11.58;91.46
71805;BME280;59654;52.216;5.616;2022-10-16T03:00:25;100765.22;;;11.56;91.95
71805;BME280;59654;52.216;5.616;2022-10-16T03:00:55;100771.44;;;11.56;91.71
71805;BME280;59654;52.216;5.616;2022-10-16T03:01:26;100768.78;;;11.56;91.62
71805;BME280;59654;52.216;5.616;2022-10-16T03:01:57;100767.84;;;11.57;91.81
71805;BME280;59654;52.216;5.616;2022-10-16T03:02:28;100762.44;;;11.59;91.80
71805;BME280;59654;52.216;5.616;2022-10-16T03:02:58;100764.19;;;11.60;91.80
71805;BME280;59654;52.216;5.616;2022-10-16T03:03:29;100775.72;;;11.60;91.59
71805;BME280;59654;52.216;5.616;2022-10-16T03:04:00;100771.09;;;11.64;91.46
71805;BME280;59654;52.216;5.616;2022-10-16T03:04:31;100764.81;;;11.65;91.49
71805;BME280;59654;52.216;5.616;2022-10-16T03:05:01;100771.91;;;11.66;91.60
71805;BME280;59654;52.216;5.616;2022-10-16T03:05:32;100763.88;;;11.66;91.25
71805;BME280;59654;52.216;5.616;2022-10-16T03:06:03;100770.84;;;11.70;91.41
71805;BME280;59654;52.216;5.616;2022-10-16T03:06:34;100775.19;;;11.73;91.55
71805;BME280;59654;52.216;5.616;2022-10-16T03:07:05;100772.56;;;11.71;90.95
71805;BME280;59654;52.216;5.616;2022-10-16T03:07:36;100771.56;;;11.74;90.86
71805;BME280;59654;52.216;5.616;2022-10-16T03:08:07;100773.44;;;11.72;90.80
71805;BME280;59654;52.216;5.616;2022-10-16T03:08:37;100767.22;;;11.71;90.94
71805;BME280;59654;52.216;5.616;2022-10-16T03:09:08;100776.13;;;11.72;90.96
71805;BME280;59654;52.216;5.616;2022-10-16T03:09:39;100773.50;;;11.70;90.92
71805;BME280;59654;52.216;5.616;2022-10-16T03:10:10;100770.03;;;11.68;91.18
71805;BME280;59654;52.216;5.616;2022-10-16T03:10:41;100766.56;;;11.66;91.18
71805;BME280;59654;52.216;5.616;2022-10-16T03:11:12;100772.91;;;11.63;91.47
71805;BME280;59654;52.216;5.616;2022-10-16T03:11:42;100775.50;;;11.65;91.36
71805;BME280;59654;52.216;5.616;2022-10-16T03:12:13;100767.41;;;11.66;91.45
71805;BME280;59654;52.216;5.616;2022-10-16T03:12:44;100770.84;;;11.70;91.59
71805;BME280;59654;52.216;5.616;2022-10-16T03:13:15;100769.09;;;11.69;91.38
71805;BME280;59654;52.216;5.616;2022-10-16T03:13:45;100770.84;;;11.70;90.99
71805;BME280;59654;52.216;5.616;2022-10-16T03:14:16;100766.28;;;11.72;90.96
71805;BME280;59654;52.216;5.616;2022-10-16T03:14:47;100768.09;;;11.72;91.17
71805;BME280;59654;52.216;5.616;2022-10-16T03:15:18;100765.44;;;11.72;91.09
71805;BME280;59654;52.216;5.616;2022-10-16T03:15:49;100763.50;;;11.75;91.59
71805;BME280;59654;52.216;5.616;2022-10-16T03:16:20;100764.38;;;11.76;90.98
71805;BME280;59654;52.216;5.616;2022-10-16T03:16:51;100761.69;;;11.76;90.97
71805;BME280;59654;52.216;5.616;2022-10-16T03:17:21;100765.28;;;11.75;90.91